createdAt,value
2019-03-05T00:00:12.932Z,2.37
2019-03-05T00:02:42.587Z,2.10
2019-03-05T00:05:10.102Z,2.20
2019-03-05T00:07:37.256Z,2.27
2019-03-05T00:10:06.315Z,2.27
2019-03-05T00:12:34.050Z,1.93
2019-03-05T00:15:02.686Z,1.83
2019-03-05T00:17:30.275Z,2.00
2019-03-05T00:19:57.996Z,1.90
2019-03-05T00:22:25.627Z,1.87
2019-03-05T00:24:59.079Z,2.07
2019-03-05T00:27:27.226Z,2.40
2019-03-05T00:30:28.708Z,2.10
2019-03-05T00:33:03.135Z,2.67
2019-03-05T00:35:56.397Z,2.00
2019-03-05T00:38:53.464Z,2.27
2019-03-05T00:41:34.481Z,1.77
2019-03-05T00:44:49.917Z,1.80
2019-03-05T00:47:57.475Z,1.90
2019-03-05T00:51:02.622Z,2.00
2019-03-05T00:54:08.062Z,2.10
2019-03-05T00:57:01.217Z,1.90
2019-03-05T00:59:52.565Z,2.10
2019-03-05T01:02:48.065Z,2.00
2019-03-05T01:05:43.371Z,1.80
2019-03-05T01:08:10.387Z,1.87
2019-03-05T01:10:38.494Z,2.10
2019-03-05T01:13:06.775Z,1.90
2019-03-05T01:15:33.935Z,1.73
2019-03-05T01:18:01.217Z,2.10
2019-03-05T01:20:28.625Z,2.17
2019-03-05T01:22:56.013Z,2.13
2019-03-05T01:25:32.751Z,2.20
2019-03-05T01:27:59.756Z,2.30
2019-03-05T01:30:54.424Z,2.17
2019-03-05T01:33:22.590Z,2.27
2019-03-05T01:35:53.427Z,2.13
2019-03-05T01:38:21.070Z,2.33
2019-03-05T01:40:52.330Z,2.10
2019-03-05T01:43:19.542Z,2.07
2019-03-05T01:45:46.539Z,1.80
2019-03-05T01:48:14.178Z,2.10
2019-03-05T01:50:41.434Z,2.20
2019-03-05T01:53:09.019Z,2.73
2019-03-05T01:55:36.557Z,2.10
2019-03-05T01:58:03.586Z,2.20
2019-03-05T02:00:30.975Z,2.00
2019-03-05T02:02:58.426Z,2.10
2019-03-05T02:05:25.839Z,1.90
2019-03-05T02:07:54.350Z,2.10
2019-03-05T02:10:22.325Z,2.40
2019-03-05T02:12:50.022Z,2.17
2019-03-05T02:15:18.567Z,2.23
2019-03-05T02:17:45.750Z,1.90
2019-03-05T02:20:16.259Z,2.67
2019-03-05T02:22:56.601Z,2.13
2019-03-05T02:25:46.015Z,2.23
2019-03-05T02:28:34.719Z,2.00
2019-03-05T02:31:20.088Z,2.30
2019-03-05T02:34:15.202Z,2.00
2019-03-05T02:37:13.711Z,2.43
2019-03-05T02:39:55.699Z,2.10
2019-03-05T02:42:41.451Z,2.10
2019-03-05T02:45:33.803Z,2.17
2019-03-05T02:48:20.349Z,1.90
2019-03-05T02:51:31.750Z,1.97
2019-03-05T02:54:21.110Z,1.90
2019-03-05T02:57:19.577Z,2.10
2019-03-05T02:59:46.950Z,2.30
2019-03-05T03:02:42.351Z,2.23
2019-03-05T03:05:18.960Z,2.00
2019-03-05T03:07:46.259Z,1.83
2019-03-05T03:10:23.700Z,1.87
2019-03-05T03:13:03.626Z,1.90
2019-03-05T03:15:30.775Z,2.07
2019-03-05T03:17:58.077Z,2.30
2019-03-05T03:20:25.501Z,2.30
2019-03-05T03:22:53.096Z,1.97
2019-03-05T03:25:21.594Z,2.13
2019-03-05T03:27:48.879Z,2.27
2019-03-05T03:30:18.566Z,1.77
2019-03-05T03:32:46.194Z,2.20
2019-03-05T03:35:13.816Z,1.90
2019-03-05T03:37:41.209Z,2.20
2019-03-05T03:40:10.992Z,1.70
2019-03-05T03:42:38.067Z,2.20
2019-03-05T03:45:07.309Z,1.97
2019-03-05T03:47:34.255Z,2.17
2019-03-05T03:50:01.632Z,2.00
2019-03-05T03:52:30.031Z,2.10
2019-03-05T03:54:57.666Z,1.80
2019-03-05T03:57:24.734Z,1.83
2019-03-05T03:59:52.345Z,1.70
2019-03-05T04:02:39.332Z,2.10
2019-03-05T04:05:06.850Z,2.13
2019-03-05T04:07:34.320Z,2.47
2019-03-05T04:10:01.484Z,1.93
2019-03-05T04:12:28.620Z,2.37
2019-03-05T04:14:55.517Z,1.83
2019-03-05T04:17:22.880Z,2.07
2019-03-05T04:19:52.032Z,2.20
2019-03-05T04:22:19.163Z,2.00
2019-03-05T04:24:46.639Z,2.17
2019-03-05T04:27:14.274Z,2.00
2019-03-05T04:29:41.623Z,1.83
2019-03-05T04:32:09.404Z,2.30
2019-03-05T04:34:36.867Z,2.17
2019-03-05T04:37:04.162Z,2.53
2019-03-05T04:39:31.784Z,2.00
2019-03-05T04:41:58.694Z,2.17
2019-03-05T04:44:45.400Z,2.17
2019-03-05T04:47:12.682Z,1.80
2019-03-05T04:49:59.222Z,2.00
2019-03-05T04:52:29.615Z,2.07
2019-03-05T04:54:56.634Z,2.10
2019-03-05T04:57:23.782Z,20.93
2019-03-05T04:59:51.042Z,7.73
2019-03-05T05:02:18.219Z,2.93
2019-03-05T05:04:45.467Z,1.77
2019-03-05T05:07:12.523Z,1.93
2019-03-05T05:09:39.766Z,1.97
2019-03-05T05:12:07.223Z,2.10
2019-03-05T05:14:34.344Z,2.00
2019-03-05T05:17:01.575Z,1.90
2019-03-05T05:19:28.499Z,1.90
2019-03-05T05:21:55.682Z,1.60
2019-03-05T05:24:22.825Z,1.70
2019-03-05T05:26:49.873Z,2.10
2019-03-05T05:29:17.577Z,1.93
2019-03-05T05:31:44.786Z,1.83
2019-03-05T05:34:12.603Z,1.77
2019-03-05T05:36:39.846Z,1.60
2019-03-05T05:39:45.306Z,1.73
2019-03-05T05:42:12.957Z,1.90
2019-03-05T05:44:40.227Z,1.90
2019-03-05T05:47:07.682Z,1.60
2019-03-05T05:49:34.908Z,1.90
2019-03-05T05:52:01.840Z,2.00
2019-03-05T05:54:28.851Z,1.60
2019-03-05T05:56:55.787Z,2.00
2019-03-05T05:59:22.927Z,1.47
2019-03-05T06:01:50.236Z,1.97
2019-03-05T06:04:18.134Z,1.90
2019-03-05T06:06:45.399Z,1.80
2019-03-05T06:09:12.946Z,1.73
2019-03-05T06:11:40.406Z,1.77
2019-03-05T06:14:07.982Z,1.80
2019-03-05T06:16:35.264Z,1.80
2019-03-05T06:19:03.349Z,1.80
2019-03-05T06:21:30.473Z,1.87
2019-03-05T06:23:57.660Z,2.00
2019-03-05T06:26:24.548Z,2.03
2019-03-05T06:28:52.119Z,1.90
2019-03-05T06:31:19.126Z,1.87
2019-03-05T06:33:46.310Z,1.70
2019-03-05T06:36:13.653Z,1.77
2019-03-05T06:38:40.946Z,1.53
2019-03-05T06:41:08.259Z,1.40
2019-03-05T06:43:35.489Z,1.40
2019-03-05T06:46:02.613Z,1.70
2019-03-05T06:48:29.553Z,1.70
2019-03-05T06:50:57.135Z,1.50
2019-03-05T06:53:24.438Z,2.00
2019-03-05T06:55:51.986Z,1.70
2019-03-05T06:58:19.679Z,1.50
2019-03-05T07:00:47.215Z,1.90
2019-03-05T07:03:14.576Z,1.67
2019-03-05T07:05:54.763Z,1.80
2019-03-05T07:08:22.413Z,1.73
2019-03-05T07:11:28.146Z,1.90
2019-03-05T07:13:56.401Z,1.70
2019-03-05T07:16:45.606Z,1.67
2019-03-05T07:20:10.351Z,1.60
2019-03-05T07:23:25.462Z,1.60
2019-03-05T07:25:53.718Z,1.60
2019-03-05T07:28:21.103Z,1.60
2019-03-05T07:30:48.343Z,1.70
2019-03-05T07:33:15.657Z,1.63
2019-03-05T07:35:43.336Z,1.50
2019-03-05T07:38:10.662Z,1.80
2019-03-05T07:40:38.176Z,1.77
2019-03-05T07:43:05.876Z,1.60
2019-03-05T07:45:33.386Z,1.40
2019-03-05T07:48:00.779Z,1.70
2019-03-05T07:50:28.731Z,1.70
2019-03-05T07:52:56.356Z,1.27
2019-03-05T07:55:23.840Z,1.53
2019-03-05T07:57:51.087Z,1.33
2019-03-05T08:00:19.967Z,1.70
2019-03-05T08:02:47.507Z,1.50
2019-03-05T08:05:16.092Z,1.50
2019-03-05T08:07:43.779Z,1.50
2019-03-05T08:10:26.074Z,1.43
2019-03-05T08:13:10.389Z,1.90
2019-03-05T08:16:01.920Z,2.03
2019-03-05T08:18:22.750Z,1.70
2019-03-05T08:20:50.226Z,1.50
2019-03-05T08:23:17.604Z,1.73
2019-03-05T08:25:44.867Z,1.47
2019-03-05T08:28:11.984Z,1.40
2019-03-05T08:30:39.542Z,1.60
2019-03-05T08:33:07.072Z,1.80
2019-03-05T08:35:34.170Z,1.90
2019-03-05T08:38:01.347Z,1.57
2019-03-05T08:40:29.786Z,1.70
2019-03-05T08:42:57.259Z,1.70
2019-03-05T08:45:29.395Z,1.60
2019-03-05T08:47:53.603Z,1.67
2019-03-05T08:50:20.710Z,1.93
2019-03-05T08:52:48.600Z,1.83
2019-03-05T08:55:15.958Z,1.30
2019-03-05T08:57:43.427Z,1.77
2019-03-05T09:00:12.767Z,1.87
2019-03-05T09:02:48.077Z,1.30
2019-03-05T09:05:10.114Z,2.13
2019-03-05T09:07:37.462Z,1.80
2019-03-05T09:10:07.466Z,1.60
2019-03-05T09:12:34.663Z,1.63
2019-03-05T09:15:02.121Z,1.50
2019-03-05T09:17:29.535Z,1.73
2019-03-05T09:19:56.730Z,1.70
2019-03-05T09:22:23.947Z,1.50
2019-03-05T09:24:50.969Z,1.70
2019-03-05T09:27:18.199Z,2.13
2019-03-05T09:29:45.819Z,1.40
2019-03-05T09:32:13.403Z,1.30
2019-03-05T09:34:40.463Z,1.50
2019-03-05T09:37:07.964Z,1.57
2019-03-05T09:39:35.319Z,1.70
2019-03-05T09:42:02.423Z,1.20
2019-03-05T09:44:29.756Z,1.07
2019-03-05T09:46:57.351Z,1.40
2019-03-05T09:49:24.383Z,1.43
2019-03-05T09:51:52.858Z,1.40
2019-03-05T09:54:20.016Z,1.40
2019-03-05T09:56:47.183Z,1.43
2019-03-05T09:59:14.190Z,1.40
2019-03-05T10:01:41.194Z,1.57
2019-03-05T10:04:08.167Z,1.30
2019-03-05T10:06:35.199Z,1.13
2019-03-05T10:09:04.795Z,1.20
2019-03-05T10:11:34.367Z,1.13
2019-03-05T10:14:01.878Z,1.07
2019-03-05T10:16:29.415Z,1.50
2019-03-05T10:18:56.925Z,1.20
2019-03-05T10:21:24.020Z,1.27
2019-03-05T10:23:51.238Z,1.10
2019-03-05T10:26:18.998Z,1.37
2019-03-05T10:28:46.378Z,1.37
2019-03-05T10:31:14.126Z,1.13
2019-03-05T10:33:41.647Z,1.40
2019-03-05T10:36:08.806Z,0.97
2019-03-05T10:38:38.017Z,0.90
2019-03-05T10:41:05.068Z,0.93
2019-03-05T10:43:33.014Z,1.40
2019-03-05T10:46:00.358Z,0.90
2019-03-05T10:48:30.158Z,1.27
2019-03-05T10:50:57.389Z,1.00
2019-03-05T10:53:24.831Z,1.30
2019-03-05T10:55:52.270Z,1.30
2019-03-05T10:58:19.860Z,1.00
2019-03-05T11:00:47.459Z,0.90
2019-03-05T11:03:16.185Z,1.20
2019-03-05T11:05:43.747Z,1.20
2019-03-05T11:08:18.199Z,1.20
2019-03-05T11:10:45.912Z,1.40
2019-03-05T11:13:13.478Z,1.70
2019-03-05T11:15:40.494Z,1.43
2019-03-05T11:18:09.271Z,1.83
2019-03-05T11:20:36.927Z,2.20
2019-03-05T11:23:05.024Z,1.90
2019-03-05T11:25:32.290Z,2.00
2019-03-05T11:27:59.807Z,1.90
2019-03-05T11:30:36.099Z,1.30
2019-03-05T11:32:57.719Z,2.03
2019-03-05T11:35:27.426Z,1.33
2019-03-05T11:37:54.538Z,1.80
2019-03-05T11:40:23.064Z,1.40
2019-03-05T11:43:10.642Z,1.60
2019-03-05T11:45:39.494Z,1.30
2019-03-05T11:48:06.811Z,1.40
2019-03-05T11:50:34.159Z,1.30
2019-03-05T11:53:01.442Z,1.30
2019-03-05T11:55:28.686Z,1.20
2019-03-05T11:57:56.079Z,1.20
2019-03-05T12:00:47.295Z,1.20
2019-03-05T12:03:15.566Z,1.43
2019-03-05T12:05:42.616Z,1.40
2019-03-05T12:08:09.846Z,1.70
2019-03-05T12:10:37.165Z,1.13
2019-03-05T12:13:04.883Z,1.40
2019-03-05T12:15:32.506Z,1.47
2019-03-05T12:18:01.463Z,1.60
2019-03-05T12:20:28.742Z,1.90
2019-03-05T12:22:56.143Z,1.57
2019-03-05T12:25:23.840Z,1.50
2019-03-05T12:27:52.122Z,1.57
2019-03-05T12:30:20.879Z,1.70
2019-03-05T12:32:48.218Z,1.40
2019-03-05T12:35:15.632Z,1.50
2019-03-05T12:37:42.872Z,1.60
2019-03-05T12:40:10.937Z,1.27
2019-03-05T12:42:38.449Z,1.50
2019-03-05T12:45:06.316Z,1.20
2019-03-05T12:47:33.511Z,1.10
2019-03-05T12:50:00.807Z,1.27
2019-03-05T12:52:28.286Z,1.17
2019-03-05T12:54:56.663Z,1.13
2019-03-05T12:57:23.811Z,1.13
2019-03-05T12:59:50.808Z,1.00
2019-03-05T13:02:18.610Z,1.10
2019-03-05T13:04:45.915Z,1.03
2019-03-05T13:07:14.128Z,1.13
2019-03-05T13:09:41.762Z,1.60
2019-03-05T13:12:08.753Z,1.30
2019-03-05T13:14:38.350Z,1.40
2019-03-05T13:17:05.729Z,1.17
2019-03-05T13:19:33.391Z,1.50
2019-03-05T13:22:00.838Z,1.10
2019-03-05T13:24:27.751Z,1.20
2019-03-05T13:26:54.684Z,1.50
2019-03-05T13:29:21.983Z,1.50
2019-03-05T13:31:49.363Z,1.50
2019-03-05T13:34:17.764Z,1.80
2019-03-05T13:36:50.649Z,1.77
2019-03-05T13:39:22.373Z,2.00
2019-03-05T13:41:50.447Z,2.23
2019-03-05T13:44:34.238Z,1.80
2019-03-05T13:47:04.628Z,1.90
2019-03-05T13:50:04.427Z,1.80
2019-03-05T13:52:46.046Z,2.10
2019-03-05T13:56:12.052Z,1.80
2019-03-05T13:59:16.851Z,1.87
2019-03-05T14:01:44.434Z,2.10
2019-03-05T14:04:18.017Z,1.87
2019-03-05T14:07:11.002Z,2.00
2019-03-05T14:09:37.438Z,1.90
2019-03-05T14:12:05.892Z,1.90
2019-03-05T14:14:33.004Z,1.70
2019-03-05T14:17:20.729Z,2.20
2019-03-05T14:19:47.860Z,1.73
2019-03-05T14:22:15.495Z,1.80
2019-03-05T14:24:42.951Z,1.60
2019-03-05T14:27:11.325Z,1.70
2019-03-05T14:29:38.967Z,1.90
2019-03-05T14:32:07.165Z,1.70
2019-03-05T14:34:34.551Z,1.87
2019-03-05T14:37:02.311Z,1.80
2019-03-05T14:39:33.783Z,1.70
2019-03-05T14:42:01.573Z,1.60
2019-03-05T14:44:39.492Z,1.80
2019-03-05T14:46:59.787Z,1.50
2019-03-05T14:49:27.212Z,1.40
2019-03-05T14:51:54.648Z,1.37
2019-03-05T14:54:21.892Z,1.20
2019-03-05T14:56:49.032Z,1.03
2019-03-05T14:59:16.269Z,1.10
2019-03-05T15:01:43.751Z,1.10
2019-03-05T15:04:10.770Z,1.30
2019-03-05T15:06:37.834Z,0.87
2019-03-05T15:09:05.817Z,1.00
2019-03-05T15:11:34.906Z,1.03
2019-03-05T15:14:02.075Z,0.90
2019-03-05T15:16:29.938Z,0.90
2019-03-05T15:18:57.230Z,1.10
2019-03-05T15:21:24.362Z,0.90
2019-03-05T15:23:51.615Z,1.10
2019-03-05T15:26:19.858Z,1.10
2019-03-05T15:28:56.163Z,1.17
2019-03-05T15:31:17.127Z,1.23
2019-03-05T15:33:44.494Z,1.40
2019-03-05T15:36:23.214Z,1.50
2019-03-05T15:38:42.913Z,1.40
2019-03-05T15:41:10.268Z,1.20
2019-03-05T15:43:37.554Z,1.33
2019-03-05T15:46:04.668Z,1.30
2019-03-05T15:48:31.649Z,1.30
2019-03-05T15:50:59.076Z,1.20
2019-03-05T15:53:27.667Z,1.20
2019-03-05T15:55:56.120Z,1.33
2019-03-05T15:58:23.674Z,1.07
2019-03-05T16:00:51.462Z,1.23
2019-03-05T16:03:19.086Z,1.20
2019-03-05T16:05:46.641Z,1.10
2019-03-05T16:08:13.779Z,1.10
2019-03-05T16:10:40.968Z,1.40
2019-03-05T16:13:08.135Z,1.33
2019-03-05T16:15:35.590Z,1.20
2019-03-05T16:18:05.170Z,1.30
2019-03-05T16:20:32.187Z,1.30
2019-03-05T16:23:00.100Z,1.40
2019-03-05T16:25:27.656Z,1.40
2019-03-05T16:27:55.050Z,1.67
2019-03-05T16:30:40.707Z,1.40
2019-03-05T16:33:36.884Z,1.30
2019-03-05T16:36:13.799Z,1.43
2019-03-05T16:38:59.161Z,1.60
2019-03-05T16:41:40.632Z,1.43
2019-03-05T16:44:24.199Z,1.43
2019-03-05T16:47:09.491Z,1.53
2019-03-05T16:50:02.242Z,1.60
2019-03-05T16:52:44.659Z,1.77
2019-03-05T16:55:31.549Z,1.80
2019-03-05T16:58:17.375Z,2.00
2019-03-05T17:01:02.967Z,1.93
2019-03-05T17:03:58.349Z,2.00
2019-03-05T17:06:34.527Z,2.10
2019-03-05T17:09:21.406Z,2.40
2019-03-05T17:11:56.934Z,2.50
2019-03-05T17:14:24.115Z,2.50
2019-03-05T17:16:51.474Z,2.40
2019-03-05T17:19:19.120Z,2.10
2019-03-05T17:21:46.603Z,2.60
2019-03-05T17:24:14.706Z,2.50
2019-03-05T17:26:42.298Z,2.70
2019-03-05T17:29:10.365Z,2.57
2019-03-05T17:31:37.872Z,2.90
2019-03-05T17:34:05.394Z,2.80
2019-03-05T17:36:33.047Z,2.63
2019-03-05T17:39:00.418Z,2.70
2019-03-05T17:41:29.702Z,2.40
2019-03-05T17:43:57.070Z,2.40
2019-03-05T17:46:24.825Z,2.20
2019-03-05T17:48:52.015Z,2.40
2019-03-05T17:51:20.308Z,2.40
2019-03-05T17:53:47.886Z,2.77
2019-03-05T17:56:15.532Z,3.03
2019-03-05T17:58:43.027Z,3.13
2019-03-05T18:01:10.297Z,2.70
2019-03-05T18:03:37.950Z,3.07
2019-03-05T18:06:05.323Z,3.30
2019-03-05T18:08:32.795Z,2.80
2019-03-05T18:11:00.340Z,3.03
2019-03-05T18:13:27.574Z,2.90
2019-03-05T18:15:55.366Z,3.50
2019-03-05T18:18:22.689Z,2.50
2019-03-05T18:20:50.254Z,2.90
2019-03-05T18:23:17.890Z,2.70
2019-03-05T18:25:45.007Z,2.90
2019-03-05T18:28:12.250Z,3.30
2019-03-05T18:30:40.081Z,3.37
2019-03-05T18:33:07.597Z,3.60
2019-03-05T18:35:35.103Z,3.40
2019-03-05T18:38:02.660Z,3.70
2019-03-05T18:40:30.279Z,3.80
2019-03-05T18:42:57.715Z,3.53
2019-03-05T18:45:25.003Z,4.27
2019-03-05T18:47:52.439Z,3.90
2019-03-05T18:50:20.127Z,4.20
2019-03-05T18:52:48.332Z,4.20
2019-03-05T18:55:15.583Z,4.17
2019-03-05T18:57:43.107Z,4.10
2019-03-05T19:00:14.056Z,3.83
2019-03-05T19:02:43.178Z,4.30
2019-03-05T19:05:10.646Z,4.63
2019-03-05T19:07:38.051Z,4.87
2019-03-05T19:10:08.526Z,4.77
2019-03-05T19:12:36.490Z,4.97
2019-03-05T19:15:05.178Z,5.47
2019-03-05T19:17:35.662Z,5.20
2019-03-05T19:20:04.092Z,5.10
2019-03-05T19:22:32.146Z,5.47
2019-03-05T19:24:59.266Z,5.23
2019-03-05T19:27:26.662Z,6.03
2019-03-05T19:29:53.755Z,5.13
2019-03-05T19:32:21.371Z,5.63
2019-03-05T19:34:49.036Z,6.13
2019-03-05T19:37:16.143Z,6.33
2019-03-05T19:39:43.399Z,11.07
2019-03-05T19:42:10.618Z,13.93
2019-03-05T19:44:37.635Z,7.10
2019-03-05T19:47:04.715Z,5.70
2019-03-05T19:49:32.410Z,5.60
2019-03-05T19:51:59.626Z,6.17
2019-03-05T19:54:27.319Z,5.67
2019-03-05T19:56:54.503Z,6.10
2019-03-05T19:59:21.799Z,5.80
2019-03-05T20:01:49.584Z,6.40
2019-03-05T20:04:17.201Z,6.10
2019-03-05T20:06:44.899Z,20.87
2019-03-05T20:09:16.722Z,6.73
2019-03-05T20:11:44.173Z,6.20
2019-03-05T20:14:11.632Z,5.33
2019-03-05T20:16:39.395Z,5.13
2019-03-05T20:19:07.015Z,4.97
2019-03-05T20:21:34.335Z,6.10
2019-03-05T20:24:01.664Z,5.70
2019-03-05T20:26:29.118Z,5.83
2019-03-05T20:28:56.783Z,5.87
2019-03-05T20:31:25.528Z,5.83
2019-03-05T20:33:53.808Z,4.80
2019-03-05T20:36:22.647Z,4.77
2019-03-05T20:38:50.394Z,5.03
2019-03-05T20:41:17.840Z,4.50
2019-03-05T20:43:45.320Z,4.57
2019-03-05T20:46:15.971Z,4.97
2019-03-05T20:48:43.715Z,4.80
2019-03-05T20:51:12.791Z,5.07
2019-03-05T20:53:40.338Z,4.97
2019-03-05T20:56:08.119Z,5.23
2019-03-05T20:58:35.357Z,5.60
2019-03-05T21:01:04.619Z,5.07
2019-03-05T21:03:31.667Z,5.03
2019-03-05T21:05:59.287Z,4.53
2019-03-05T21:08:27.080Z,5.00
2019-03-05T21:10:54.622Z,5.10
2019-03-05T21:13:22.536Z,4.97
2019-03-05T21:15:49.558Z,5.03
2019-03-05T21:18:16.758Z,4.80
2019-03-05T21:20:44.599Z,4.90
2019-03-05T21:23:12.710Z,4.67
2019-03-05T21:25:40.142Z,4.40
2019-03-05T21:28:07.846Z,4.63
2019-03-05T21:30:36.986Z,4.00
2019-03-05T21:33:04.493Z,3.63
2019-03-05T21:35:33.155Z,4.20
2019-03-05T21:38:00.902Z,3.90
2019-03-05T21:40:28.259Z,4.20
2019-03-05T21:42:56.834Z,4.27
2019-03-05T21:45:29.783Z,4.27
2019-03-05T21:47:57.782Z,3.87
2019-03-05T21:50:26.063Z,3.00
2019-03-05T21:52:53.396Z,3.43
2019-03-05T21:55:22.010Z,3.23
2019-03-05T21:57:49.527Z,3.00
2019-03-05T22:00:19.235Z,3.00
2019-03-05T22:02:46.630Z,3.27
2019-03-05T22:05:14.067Z,11.03
2019-03-05T22:07:41.610Z,6.00
2019-03-05T22:10:11.118Z,3.63
2019-03-05T22:12:38.167Z,3.30
2019-03-05T22:15:06.959Z,3.00
2019-03-05T22:17:36.458Z,3.13
2019-03-05T22:20:04.210Z,2.80
2019-03-05T22:22:32.150Z,2.70
2019-03-05T22:25:00.059Z,2.87
2019-03-05T22:27:29.140Z,3.00
2019-03-05T22:29:59.315Z,3.17
2019-03-05T22:32:26.637Z,3.47
2019-03-05T22:34:53.979Z,3.20
2019-03-05T22:37:21.466Z,3.30
2019-03-05T22:39:48.523Z,3.27
2019-03-05T22:42:15.644Z,3.20
2019-03-05T22:44:42.705Z,3.30
2019-03-05T22:47:09.943Z,3.40
2019-03-05T22:49:37.535Z,3.23
2019-03-05T22:52:05.922Z,3.17
2019-03-05T22:54:33.488Z,3.80
2019-03-05T22:57:01.207Z,3.70
2019-03-05T22:59:29.482Z,3.30
2019-03-05T23:01:57.789Z,3.77
2019-03-05T23:04:34.739Z,4.03
2019-03-05T23:07:02.211Z,4.07
2019-03-05T23:09:30.062Z,3.43
2019-03-05T23:11:59.262Z,4.00
2019-03-05T23:14:27.014Z,3.90
2019-03-05T23:16:54.450Z,4.23
2019-03-05T23:19:22.010Z,4.30
2019-03-05T23:21:50.191Z,3.83
2019-03-05T23:24:18.731Z,4.50
2019-03-05T23:26:46.287Z,4.30
2019-03-05T23:29:14.403Z,3.70
2019-03-05T23:31:42.323Z,4.63
2019-03-05T23:34:17.902Z,3.93
2019-03-05T23:36:38.604Z,3.93
2019-03-05T23:39:09.082Z,3.80
2019-03-05T23:41:38.354Z,4.43
2019-03-05T23:44:05.866Z,4.30
2019-03-05T23:46:33.457Z,4.40
2019-03-05T23:49:01.155Z,4.17
2019-03-05T23:51:28.927Z,4.50
2019-03-05T23:53:56.400Z,4.37
2019-03-05T23:56:24.048Z,4.13
2019-03-05T23:58:51.238Z,4.50
